Aérodrome :
LOGIN :

S'inscrire | Disclaimer

   EN    FR    IT 

 










Légende :    VFR   VFR Marginal   IFR   IFR Intensif   IFR Très Intensif
Visi : 
Plafond : 
>= 8 km
>= 3000ft
5 à 8 km
1000 à 3000 ft
1500m à 5 km
500 à 1000 ft
800 à 1500m
200 à 500 ft
< 800m
< 200 ft
Symboles :   Orages  Brouillard  Fortes neiges  Fortes précipitations  Vent > 20 kt
SIGMETs :   Divers  Orages  Givrage  Turbulence  Onde Orograph.  Cendres Volcan.






- Altitude de l'aérodrome : 138 ft
- Code IATA : BIO


LEBB - Bilbao

DERNIER METAR :
  • 190430Z VRB01KT 9999 FEW055 05/05 Q1018 NOSIG

METARs EXPIRÉS :
  • 190400Z 07003KT 050V110 9999 FEW055 05/05 Q1018 NOSIG
  • 190330Z AUTO 08005KT 7000 NCD 06/06 Q1018
  • 190300Z AUTO 10004KT 080V140 9000 BKN059 06/06 Q1018
  • 190230Z AUTO 07004KT 050V130 9999 FEW050 SCT060 07/06 Q1018
  • 190200Z AUTO VRB02KT 9000 SCT042 07/07 Q1019

TAF TAF LEBB
Valide du 19 à 00h jusqu'au 20 à 00h UTC


182300Z 1900/1924 14005KT 9999 FEW020 SCT035 TX12/1914Z TN03/1907Z
PROB30
TEMPO 1900/1909 3000 -RA BR BCFG



MET'MAP, la Météo Aéronautique d'un coup d'oeil ! - Copyright ORBIFLY Décembre 2007 - Disclaimer

ORBIFLY MET'MAP TEAM :

Programmation & Développement : Alexandra Zaïnal
Conception & Développement : Baudouin d'Aumeries
Co-Programmation & Développement : Marc-Olivier Méhu
Soutien technique & logistique : Manuel Goepfert

Contact : metmap@orbifly.com




SOURCES & CREDITS :

   NOAA